Austin, Utah
Current Conditions -  °F | °C
As of 6:52 PM on Friday 28 Nov 2014 (Local Time) from KMLF Reporting Station
Clear Clear  
Wind Chill: 51°   Ceiling: Unl
Heat Index: 51°   Visibility: 10mi
Dew Point: 13°   Wind: 20mph
Humidity: 22%   Direction: 200°SSW
Pressure: 29.96"   Gusts: NA
Location:  38.6125°N, 112.081°W
Report Text: KMLF 290152Z AUTO 20017KT 10SM CLR 11/M11 A2996 RMK AO2 SLP135 T01061106 TSNO
Loading
Personal Weather Stations






























Interactive Weather Map New forecast layout! Learn more

10-Day Weather Forecast

Advertisements
Track Severe Weather on mobile